Time;durP1;ratioP1;P1;durP2;ratioP2;P2;SDS_P1;SDS_P2;PMS_P1;PMS_P2;Temp;Humidity;BMP_temperature;BMP_pressure;BME280_temperature;BME280_humidity;BME280_pressure;Samples;Min_cycle;Max_cycle;Signal;HPM_P1;HPM_P2
2022/12/25 00:01:19;;;;;;;5.32;3.33;;;12.00;99.90;;;;;;10151264;28;20071;-62
2022/12/25 00:06:10;;;;;;;4.28;2.00;;;12.00;99.90;;;;;;10126479;28;20052;-65
2022/12/25 00:11:06;;;;;;;4.28;1.38;;;11.90;99.90;;;;;;10137835;28;20400;-58
2022/12/25 00:15:56;;;;;;;4.38;1.95;;;11.80;99.90;;;;;;10142739;28;20119;-60
2022/12/25 00:21:05;;;;;;;2.47;1.58;;;11.90;99.90;;;;;;10140097;28;20111;-61
2022/12/25 00:25:56;;;;;;;2.97;2.03;;;11.90;99.90;;;;;;10142244;28;20418;-56
2022/12/25 00:30:47;;;;;;;6.00;1.40;;;11.80;99.90;;;;;;10141484;28;20025;-57
2022/12/25 00:35:37;;;;;;;1.73;1.38;;;11.80;99.90;;;;;;10141713;28;20032;-57
2022/12/25 00:40:28;;;;;;;1.40;1.30;;;11.90;99.90;;;;;;10141247;28;20013;-58
2022/12/25 00:45:19;;;;;;;1.75;1.42;;;11.90;99.90;;;;;;10141519;28;20063;-56
2022/12/25 00:50:10;;;;;;;3.25;1.30;;;11.80;99.90;;;;;;10136109;28;20082;-57
2022/12/25 00:55:00;;;;;;;2.60;1.33;;;11.90;99.90;;;;;;10140581;28;20032;-57
2022/12/25 00:59:51;;;;;;;2.25;1.42;;;11.90;99.90;;;;;;10139913;28;20421;-61
2022/12/25 01:04:42;;;;;;;3.55;1.27;;;11.90;99.90;;;;;;10139919;28;20040;-59
2022/12/25 01:14:41;;;;;;;3.35;1.75;;;11.80;99.90;;;;;;10140926;28;20036;-69
2022/12/25 01:19:32;;;;;;;2.88;1.90;;;11.80;99.90;;;;;;10136791;28;20024;-64
2022/12/25 01:24:23;;;;;;;3.40;1.67;;;11.80;99.90;;;;;;10140334;28;20415;-69
2022/12/25 01:29:13;;;;;;;3.33;1.85;;;11.80;99.90;;;;;;10139812;28;20055;-63
2022/12/25 01:34:04;;;;;;;3.75;1.85;;;11.90;99.90;;;;;;10135893;28;20032;-61
2022/12/25 01:38:54;;;;;;;3.60;1.63;;;11.90;99.90;;;;;;10140575;28;20033;-58
2022/12/25 01:44:07;;;;;;;7.05;2.38;;;12.00;99.90;;;;;;10140997;28;20394;-65
2022/12/25 01:49:01;;;;;;;4.55;2.00;;;12.00;99.90;;;;;;10133373;28;20023;-57
2022/12/25 01:53:53;;;;;;;4.30;1.92;;;11.90;99.90;;;;;;10137361;28;20098;-67
2022/12/25 01:58:44;;;;;;;4.00;1.42;;;11.70;99.90;;;;;;10137571;28;20067;-69
2022/12/25 02:03:35;;;;;;;3.50;1.75;;;11.70;99.90;;;;;;10129482;28;20543;-69
2022/12/25 02:08:26;;;;;;;3.58;1.50;;;11.70;99.90;;;;;;10131898;28;20036;-64
2022/12/25 02:13:19;;;;;;;2.38;2.03;;;11.70;99.90;;;;;;10137768;28;20042;-69
2022/12/25 02:18:34;;;;;;;2.88;1.80;;;11.70;99.90;;;;;;10134355;28;20166;-58
2022/12/25 02:24:05;;;;;;;2.33;1.50;;;11.60;99.90;;;;;;10134236;28;20510;-57
2022/12/25 02:29:16;;;;;;;3.22;1.95;;;11.60;99.90;;;;;;10134781;28;20071;-58
2022/12/25 02:34:12;;;;;;;3.53;1.70;;;11.60;99.90;;;;;;10131366;28;20040;-57
2022/12/25 03:31:55;;;;;;;3.42;1.90;;;11.80;99.90;;;;;;10144943;28;20164;-58
2022/12/25 04:39:33;;;;;;;3.47;1.73;;;12.00;99.90;;;;;;10141111;28;20038;-58
2022/12/25 04:44:24;;;;;;;2.63;1.63;;;12.00;99.90;;;;;;10141088;28;20062;-57
2022/12/25 04:49:14;;;;;;;5.00;1.90;;;12.10;99.90;;;;;;10137660;28;20028;-60
2022/12/25 04:54:05;;;;;;;4.47;1.70;;;12.00;99.90;;;;;;10141625;28;20100;-57
2022/12/25 04:58:56;;;;;;;2.50;1.40;;;12.00;99.90;;;;;;10140853;28;20162;-56
2022/12/25 05:03:46;;;;;;;5.32;1.98;;;11.90;99.90;;;;;;10137997;28;20036;-56
2022/12/25 05:08:37;;;;;;;4.35;2.30;;;12.00;99.90;;;;;;10132452;28;20028;-58
2022/12/25 05:13:28;;;;;;;2.00;1.73;;;12.00;99.90;;;;;;10140645;28;20170;-56
2022/12/25 05:18:18;;;;;;;2.28;1.52;;;12.00;99.90;;;;;;10139770;28;20020;-55
2022/12/25 05:23:12;;;;;;;2.15;1.45;;;11.90;99.90;;;;;;10140733;28;20505;-57
2022/12/25 05:28:03;;;;;;;3.83;2.17;;;11.80;99.90;;;;;;10139713;28;20067;-57
2022/12/25 05:32:53;;;;;;;2.80;1.80;;;11.80;99.90;;;;;;10133128;28;20033;-62
2022/12/25 05:37:44;;;;;;;3.05;1.70;;;11.90;99.90;;;;;;10138996;28;20070;-57
2022/12/25 05:42:35;;;;;;;2.53;1.45;;;11.90;99.90;;;;;;10135740;28;20426;-58
2022/12/25 05:47:25;;;;;;;2.60;1.65;;;11.80;99.90;;;;;;10135548;28;20449;-67
2022/12/25 05:52:16;;;;;;;1.80;1.40;;;11.90;99.90;;;;;;10138721;28;20031;-64
2022/12/25 05:57:06;;;;;;;3.45;2.45;;;11.90;99.90;;;;;;10138292;28;20480;-58
2022/12/25 06:01:57;;;;;;;3.20;1.90;;;11.90;99.90;;;;;;10128711;28;20444;-58
2022/12/25 06:06:48;;;;;;;3.42;1.88;;;12.00;99.90;;;;;;10125255;28;20154;-57
2022/12/25 06:11:39;;;;;;;2.22;1.70;;;11.90;99.90;;;;;;10118907;28;20332;-55
2022/12/25 06:16:30;;;;;;;5.28;1.88;;;11.90;99.90;;;;;;10120203;28;20411;-56
2022/12/25 06:21:21;;;;;;;3.25;1.88;;;11.90;99.90;;;;;;10133531;28;20025;-56
2022/12/25 06:26:17;;;;;;;3.53;1.65;;;11.80;99.90;;;;;;10137212;28;20039;-56
2022/12/25 06:31:08;;;;;;;;;;;11.80;99.90;;;;;;10136203;28;20115;-59
2022/12/25 06:36:10;;;;;;;2.55;1.35;;;11.80;99.90;;;;;;10137284;28;20352;-66
2022/12/25 06:41:09;;;;;;;2.50;1.58;;;11.90;99.90;;;;;;10135904;28;20389;-68
2022/12/25 06:46:06;;;;;;;2.67;1.65;;;11.80;99.90;;;;;;10136820;28;20042;-64
2022/12/25 06:50:56;;;;;;;3.72;2.00;;;11.80;99.90;;;;;;10136734;28;20043;-57
2022/12/25 06:55:47;;;;;;;3.75;1.92;;;11.80;99.90;;;;;;10131920;28;20423;-59
2022/12/25 07:00:37;;;;;;;2.70;1.50;;;11.80;99.90;;;;;;10136239;28;20108;-56
2022/12/25 07:05:28;;;;;;;3.33;1.75;;;11.80;99.90;;;;;;10136494;28;20097;-62
2022/12/25 07:10:19;;;;;;;5.68;3.28;;;11.80;99.90;;;;;;10127096;28;20465;-59
2022/12/25 07:15:09;;;;;;;4.70;1.95;;;11.80;99.90;;;;;;10136113;28;20029;-63
2022/12/25 07:20:03;;;;;;;3.45;2.35;;;11.80;99.90;;;;;;10136204;28;20498;-65
2022/12/25 07:24:54;;;;;;;4.93;2.25;;;11.80;99.90;;;;;;10130002;28;20045;-62
2022/12/25 07:29:44;;;;;;;4.40;2.60;;;11.80;99.90;;;;;;10136098;28;20024;-62
2022/12/25 07:34:35;;;;;;;3.83;2.45;;;11.70;99.90;;;;;;10134775;28;20035;-67
2022/12/25 07:39:26;;;;;;;5.40;2.60;;;11.80;99.90;;;;;;10131212;28;20241;-60
2022/12/25 07:44:16;;;;;;;3.97;2.72;;;11.80;99.90;;;;;;10141305;28;20082;-65
2022/12/25 07:49:07;;;;;;;3.40;1.98;;;11.80;99.90;;;;;;10136312;28;20095;-56
2022/12/25 07:53:58;;;;;;;3.75;2.53;;;11.90;99.90;;;;;;10134783;28;20433;-56
2022/12/25 07:58:48;;;;;;;3.47;1.90;;;11.90;99.90;;;;;;10135006;28;20055;-56
2022/12/25 08:03:39;;;;;;;4.15;2.67;;;11.90;99.90;;;;;;10135925;28;20021;-58
2022/12/25 08:08:30;;;;;;;2.13;1.65;;;11.80;99.90;;;;;;10127788;28;20029;-60
2022/12/25 08:13:21;;;;;;;4.32;2.45;;;11.90;99.90;;;;;;10140170;28;20052;-59
2022/12/25 08:18:11;;;;;;;6.55;2.53;;;11.80;99.90;;;;;;10142099;28;20024;-59
2022/12/25 08:23:03;;;;;;;5.55;2.15;;;11.70;99.90;;;;;;10142336;28;20028;-57
2022/12/25 08:27:54;;;;;;;5.30;2.40;;;11.70;99.90;;;;;;10142099;28;20115;-56
2022/12/25 08:32:44;;;;;;;3.35;2.08;;;11.70;99.90;;;;;;10141504;28;20132;-58
2022/12/25 08:37:35;;;;;;;3.88;1.92;;;11.80;99.90;;;;;;10140336;28;20570;-56
2022/12/25 08:42:25;;;;;;;4.03;2.05;;;11.80;99.90;;;;;;10142269;28;20478;-56
2022/12/25 08:47:16;;;;;;;4.70;2.15;;;11.80;99.90;;;;;;10141315;28;20486;-55
2022/12/25 08:52:07;;;;;;;3.95;1.92;;;11.80;99.90;;;;;;10141823;28;20028;-57
2022/12/25 08:56:58;;;;;;;4.93;2.58;;;11.90;99.90;;;;;;10141291;28;20082;-57
2022/12/25 09:01:48;;;;;;;4.20;2.50;;;11.90;99.90;;;;;;10135936;28;20124;-58
2022/12/25 09:06:39;;;;;;;5.55;1.80;;;12.00;99.90;;;;;;10139333;28;20040;-61
2022/12/25 09:11:30;;;;;;;2.70;1.92;;;12.20;99.90;;;;;;10134198;28;20107;-55
2022/12/25 09:16:21;;;;;;;2.75;1.77;;;12.20;99.90;;;;;;10139568;28;20028;-63
2022/12/25 09:21:14;;;;;;;2.00;1.70;;;12.20;99.90;;;;;;10140815;28;20123;-57
2022/12/25 09:26:06;;;;;;;3.25;1.70;;;12.30;99.90;;;;;;10139293;28;20036;-60
2022/12/25 09:30:57;;;;;;;2.47;1.85;;;12.40;99.90;;;;;;10135025;28;20047;-57
2022/12/25 09:36:05;;;;;;;2.95;1.85;;;12.50;99.90;;;;;;10139801;28;20482;-57
2022/12/25 09:41:16;;;;;;;2.40;1.83;;;12.50;99.90;;;;;;10137113;28;20020;-56
2022/12/25 09:46:12;;;;;;;2.35;1.42;;;12.60;99.90;;;;;;10129063;28;20091;-58
2022/12/25 09:51:08;;;;;;;4.20;2.10;;;12.70;99.90;;;;;;10135774;28;20024;-59
2022/12/25 09:56:19;;;;;;;2.97;1.83;;;12.80;99.90;;;;;;10139380;28;20032;-57
2022/12/25 10:01:28;;;;;;;3.45;2.47;;;13.00;99.90;;;;;;10137699;28;20112;-57
2022/12/25 10:06:54;;;;;;;5.47;2.63;;;13.10;99.90;;;;;;10138514;28;20527;-55
2022/12/25 10:12:28;;;;;;;3.08;1.88;;;13.10;99.90;;;;;;10118923;28;20115;-66
2022/12/25 10:17:36;;;;;;;4.82;2.20;;;13.10;99.90;;;;;;10128117;28;20028;-65
2022/12/25 10:22:34;;;;;;;3.53;2.10;;;13.10;99.90;;;;;;10130648;28;20032;-68
2022/12/25 10:27:36;;;;;;;2.72;1.88;;;13.10;99.90;;;;;;10135102;28;20135;-69
2022/12/25 10:32:26;;;;;;;4.00;2.03;;;13.20;99.90;;;;;;10133288;28;20055;-69
2022/12/25 10:37:17;;;;;;;3.38;1.83;;;13.30;99.90;;;;;;10138161;28;20506;-61
2022/12/25 10:42:37;;;;;;;2.42;1.83;;;13.40;99.90;;;;;;10138266;28;20052;-62
2022/12/25 10:47:31;;;;;;;4.07;1.90;;;13.60;99.90;;;;;;10137066;28;20048;-59
2022/12/25 10:52:26;;;;;;;2.25;1.90;;;13.70;99.90;;;;;;10137301;28;20445;-59
2022/12/25 10:57:20;;;;;;;4.53;2.80;;;13.80;99.90;;;;;;10131371;28;20045;-59
2022/12/25 11:02:34;;;;;;;2.65;2.10;;;13.70;99.90;;;;;;10135557;28;20126;-66
2022/12/25 11:07:25;;;;;;;3.10;2.25;;;13.80;99.90;;;;;;10125709;28;20032;-62
2022/12/25 11:12:19;;;;;;;3.67;2.17;;;13.80;99.90;;;;;;10131078;28;20397;-69
2022/12/25 11:17:20;;;;;;;4.13;2.45;;;14.00;99.90;;;;;;10136567;28;20055;-62
2022/12/25 11:22:17;;;;;;;4.85;2.13;;;14.00;99.90;;;;;;10126058;28;20158;-68
2022/12/25 11:27:22;;;;;;;4.80;2.13;;;14.00;99.90;;;;;;10135948;28;20059;-70
2022/12/25 11:32:40;;;;;;;3.85;2.55;;;14.10;99.90;;;;;;10136984;28;20099;-60
2022/12/25 11:37:50;;;;;;;2.85;1.83;;;14.10;99.90;;;;;;10130187;28;20033;-66
2022/12/25 11:42:47;;;;;;;3.95;2.78;;;14.10;99.90;;;;;;10134400;28;20483;-66
2022/12/25 11:47:59;;;;;;;2.95;1.95;;;14.10;99.90;;;;;;10141273;28;20831;-59
2022/12/25 11:52:51;;;;;;;2.80;1.75;;;14.10;99.90;;;;;;10139214;28;20082;-58
2022/12/25 11:57:47;;;;;;;4.72;1.98;;;14.30;99.90;;;;;;10143896;28;20543;-57
2022/12/25 12:03:08;;;;;;;3.33;1.83;;;14.40;99.90;;;;;;10142735;28;20606;-56
2022/12/25 12:08:01;;;;;;;2.80;1.70;;;14.30;99.90;;;;;;10111682;28;20049;-59
2022/12/25 12:13:13;;;;;;;3.05;1.85;;;14.30;99.90;;;;;;10143783;28;20041;-66
2022/12/25 12:18:25;;;;;;;2.72;1.70;;;14.20;99.90;;;;;;10135547;28;20469;-68
2022/12/25 12:23:16;;;;;;;4.53;2.10;;;14.30;99.90;;;;;;10138276;28;20067;-64
2022/12/25 12:28:19;;;;;;;2.40;1.75;;;14.30;99.90;;;;;;10142350;28;20040;-69
2022/12/25 12:33:19;;;;;;;3.08;1.40;;;14.40;99.90;;;;;;10138323;28;20012;-67
2022/12/25 12:38:18;;;;;;;2.17;1.30;;;14.40;99.90;;;;;;10133496;28;20024;-71
2022/12/25 12:43:31;;;;;;;3.33;1.42;;;14.40;99.90;;;;;;10142649;28;20017;-68
2022/12/25 12:48:27;;;;;;;1.73;1.20;;;14.50;99.90;;;;;;10132608;28;20044;-68
2022/12/25 12:53:21;;;;;;;3.28;1.45;;;14.60;99.90;;;;;;10132937;28;20024;-65
2022/12/25 12:58:29;;;;;;;2.00;1.63;;;14.60;99.90;;;;;;10141986;28;20047;-71
2022/12/25 13:03:50;;;;;;;2.15;1.65;;;14.70;99.90;;;;;;10140655;28;20495;-71
2022/12/25 13:08:55;;;;;;;2.25;1.58;;;14.80;99.90;;;;;;10131311;28;20029;-65
2022/12/25 13:13:48;;;;;;;3.37;1.40;;;15.10;99.90;;;;;;10135481;28;20035;-70
2022/12/25 13:18:40;;;;;;;1.85;1.30;;;15.10;99.90;;;;;;10140706;28;20774;-68
2022/12/25 13:23:36;;;;;;;2.42;1.33;;;15.10;99.90;;;;;;10139222;28;20085;-65
2022/12/25 13:28:31;;;;;;;;;;;15.40;99.90;;;;;;10140446;28;20032;-67
2022/12/25 13:33:21;;;;;;;2.45;1.77;;;15.40;99.90;;;;;;10136354;28;19911;-62
2022/12/25 13:38:16;;;;;;;3.03;1.92;;;15.30;99.90;;;;;;10146168;28;20021;-63
2022/12/25 13:43:10;;;;;;;2.38;1.50;;;15.20;99.90;;;;;;10141076;28;20021;-64
2022/12/25 13:48:18;;;;;;;2.40;1.50;;;15.20;99.90;;;;;;10139595;28;20139;-57
2022/12/25 13:53:12;;;;;;;2.35;1.52;;;15.20;99.90;;;;;;10139784;28;20025;-55
2022/12/25 13:58:05;;;;;;;3.08;1.60;;;15.10;99.90;;;;;;10135695;28;20042;-55
2022/12/25 14:02:56;;;;;;;5.60;1.80;;;15.00;99.90;;;;;;10139707;28;20131;-61
2022/12/25 14:07:52;;;;;;;3.03;1.73;;;15.00;99.90;;;;;;10133018;28;20067;-59
2022/12/25 14:12:43;;;;;;;2.97;2.03;;;15.00;99.90;;;;;;10123937;28;20039;-57
2022/12/25 14:17:34;;;;;;;3.05;1.67;;;15.10;99.90;;;;;;10137824;28;20089;-55
2022/12/25 14:22:26;;;;;;;2.28;1.50;;;15.00;99.90;;;;;;10138029;28;20564;-56
2022/12/25 14:27:21;;;;;;;2.83;1.60;;;14.90;99.90;;;;;;10129931;28;20024;-55
2022/12/25 14:32:18;;;;;;;3.13;1.67;;;14.80;99.90;;;;;;10136561;28;20040;-57
2022/12/25 14:37:17;;;;;;;3.90;1.73;;;14.70;99.90;;;;;;10137295;28;20040;-60
2022/12/25 14:42:22;;;;;;;2.22;1.50;;;14.60;99.90;;;;;;10131213;28;20150;-55
2022/12/25 14:47:19;;;;;;;3.83;2.83;;;14.50;99.90;;;;;;10137997;28;20036;-55
2022/12/25 14:52:15;;;;;;;2.90;1.50;;;14.40;99.90;;;;;;10153011;28;20048;-58
2022/12/25 14:57:06;;;;;;;3.30;1.98;;;14.30;99.90;;;;;;10130311;28;20028;-57
2022/12/25 15:01:59;;;;;;;2.15;1.63;;;14.10;99.90;;;;;;10138116;28;20041;-58
2022/12/25 15:06:59;;;;;;;3.03;2.05;;;14.10;99.90;;;;;;10136880;28;20036;-57
2022/12/25 15:11:52;;;;;;;2.67;1.60;;;14.00;99.90;;;;;;10129596;28;20452;-57
2022/12/25 15:16:54;;;;;;;2.90;2.03;;;14.00;99.90;;;;;;10137295;28;20066;-58
2022/12/25 15:21:44;;;;;;;3.00;1.92;;;13.90;99.90;;;;;;10132182;28;20515;-59
2022/12/25 15:26:35;;;;;;;3.03;1.90;;;13.90;99.90;;;;;;10144313;28;20046;-61
2022/12/25 15:31:30;;;;;;;2.67;1.73;;;13.90;99.90;;;;;;10144728;28;20120;-57
2022/12/25 15:36:21;;;;;;;2.67;1.33;;;13.90;99.90;;;;;;10126558;28;20451;-57
2022/12/25 15:42:09;;;;;;;3.58;1.80;;;13.90;99.90;;;;;;10131737;28;20036;-57
2022/12/25 15:46:25;;;;;;;3.05;1.40;;;14.00;99.90;;;;;;10143796;28;20521;-57
2022/12/25 15:51:16;;;;;;;2.35;1.67;;;14.00;99.90;;;;;;10144125;28;20020;-58
2022/12/25 15:56:09;;;;;;;2.05;1.80;;;14.00;99.90;;;;;;10144118;28;20035;-57
2022/12/25 16:00:59;;;;;;;3.33;2.15;;;14.00;99.90;;;;;;10143303;28;20040;-58
2022/12/25 16:05:50;;;;;;;3.38;1.75;;;13.90;99.90;;;;;;10137077;28;20043;-59
2022/12/25 16:10:41;;;;;;;3.78;2.20;;;13.90;99.90;;;;;;10135933;28;20484;-58
2022/12/25 16:15:31;;;;;;;3.70;1.67;;;13.80;99.90;;;;;;10143131;28;20537;-58
2022/12/25 16:20:22;;;;;;;1.80;1.38;;;13.80;99.90;;;;;;10140789;28;20039;-59
2022/12/25 16:25:16;;;;;;;3.38;1.95;;;13.80;99.90;;;;;;10142363;28;20601;-59
2022/12/25 16:30:07;;;;;;;3.85;1.60;;;13.80;99.90;;;;;;10142661;28;20050;-57
2022/12/25 16:34:58;;;;;;;2.40;1.77;;;13.70;99.90;;;;;;10142357;28;20112;-56
2022/12/25 16:39:48;;;;;;;2.30;1.85;;;13.60;99.90;;;;;;10141785;28;20123;-57
2022/12/25 16:44:39;;;;;;;2.45;1.58;;;13.70;99.90;;;;;;10142217;28;20108;-58
2022/12/25 16:49:29;;;;;;;2.67;1.88;;;13.60;99.90;;;;;;10140327;28;20028;-59
2022/12/25 16:54:20;;;;;;;2.67;1.45;;;13.70;99.90;;;;;;10141570;28;20020;-56
2022/12/25 16:59:11;;;;;;;1.90;1.40;;;13.70;99.90;;;;;;10140778;28;20119;-55
2022/12/25 17:04:02;;;;;;;4.13;1.70;;;13.60;99.90;;;;;;10132810;28;20020;-66
2022/12/25 17:08:56;;;;;;;1.88;1.35;;;13.60;99.90;;;;;;10134265;28;20033;-58
2022/12/25 17:13:47;;;;;;;3.70;1.80;;;13.60;99.90;;;;;;10140590;28;20028;-57
2022/12/25 17:18:37;;;;;;;1.63;1.38;;;13.60;99.90;;;;;;10140620;28;20028;-56
2022/12/25 17:23:28;;;;;;;3.28;1.30;;;13.60;99.90;;;;;;10140454;28;20209;-59
2022/12/25 17:28:19;;;;;;;2.50;1.30;;;13.60;99.90;;;;;;10139428;28;20402;-58
2022/12/25 17:33:09;;;;;;;2.13;1.23;;;13.60;99.90;;;;;;10142109;28;20082;-59
2022/12/25 17:38:00;;;;;;;3.92;1.77;;;13.60;99.90;;;;;;10130874;28;20553;-58
2022/12/25 17:42:51;;;;;;;1.90;1.48;;;13.50;99.90;;;;;;10138706;28;20042;-56
2022/12/25 17:47:42;;;;;;;3.25;1.60;;;13.50;99.90;;;;;;10138557;28;20068;-58
2022/12/25 17:52:32;;;;;;;2.72;1.45;;;13.50;99.90;;;;;;10139124;28;20021;-57
2022/12/25 17:57:23;;;;;;;3.17;1.52;;;13.40;99.90;;;;;;10139842;28;20029;-55
2022/12/25 18:02:14;;;;;;;3.72;2.05;;;13.40;99.90;;;;;;10139074;28;20391;-57
2022/12/25 18:07:04;;;;;;;3.53;1.67;;;13.40;99.90;;;;;;10138499;28;20175;-59
2022/12/25 18:11:55;;;;;;;2.63;1.77;;;13.40;99.90;;;;;;10124753;28;20081;-57
2022/12/25 18:16:46;;;;;;;2.55;1.65;;;13.40;99.90;;;;;;10138281;28;20487;-57
2022/12/25 18:21:37;;;;;;;2.40;1.38;;;13.40;99.90;;;;;;10138810;28;20033;-56
2022/12/25 18:26:27;;;;;;;2.85;1.85;;;13.30;99.90;;;;;;10134384;28;20557;-58
2022/12/25 18:31:21;;;;;;;4.13;2.00;;;13.30;99.90;;;;;;10138502;28;20021;-56
2022/12/25 18:36:15;;;;;;;3.35;2.25;;;13.30;99.90;;;;;;10138127;28;20140;-58
2022/12/25 18:41:07;;;;;;;3.83;1.90;;;13.20;99.90;;;;;;10135484;28;20021;-56
2022/12/25 18:46:00;;;;;;;3.30;1.52;;;13.20;99.90;;;;;;10137363;28;20179;-58
2022/12/25 18:50:57;;;;;;;2.53;1.83;;;13.20;99.90;;;;;;10137238;28;20041;-57
2022/12/25 18:55:47;;;;;;;2.45;1.60;;;13.10;99.90;;;;;;10136949;28;20028;-57
2022/12/25 19:00:38;;;;;;;2.88;1.83;;;13.10;99.90;;;;;;10136904;28;20074;-55
2022/12/25 19:05:29;;;;;;;4.72;2.10;;;13.10;99.90;;;;;;10136907;28;20040;-66
2022/12/25 19:10:19;;;;;;;4.63;2.30;;;13.10;99.90;;;;;;10129357;28;20021;-57
2022/12/25 19:15:10;;;;;;;7.72;2.00;;;13.10;99.90;;;;;;10136102;28;20074;-60
2022/12/25 19:20:01;;;;;;;3.38;2.08;;;13.00;99.90;;;;;;10134649;28;20510;-61
2022/12/25 19:24:51;;;;;;;3.00;2.00;;;13.00;99.90;;;;;;10135074;28;20038;-57
2022/12/25 19:29:42;;;;;;;2.58;2.00;;;12.90;99.90;;;;;;10136197;28;20071;-57
2022/12/25 19:34:34;;;;;;;6.95;3.13;;;12.90;99.90;;;;;;10133068;28;20041;-66
2022/12/25 19:39:24;;;;;;;3.92;2.22;;;12.80;99.90;;;;;;10136131;28;20114;-57
2022/12/25 19:44:15;;;;;;;6.90;2.20;;;12.80;99.90;;;;;;10135697;28;20029;-60
2022/12/25 19:49:08;;;;;;;4.30;2.22;;;12.80;99.90;;;;;;10132949;28;20040;-56
2022/12/25 19:53:59;;;;;;;3.95;2.47;;;12.80;99.90;;;;;;10136031;28;20021;-60
2022/12/25 19:58:50;;;;;;;3.97;2.30;;;12.70;99.90;;;;;;10136374;28;20422;-56
2022/12/25 20:03:43;;;;;;;3.70;2.67;;;12.70;99.90;;;;;;10121276;28;20044;-61
2022/12/25 20:08:34;;;;;;;4.85;2.65;;;12.70;99.90;;;;;;10138211;28;20139;-58
2022/12/25 20:13:25;;;;;;;3.22;2.17;;;12.70;99.90;;;;;;10135333;28;20470;-55
2022/12/25 20:18:16;;;;;;;4.93;2.00;;;12.70;99.90;;;;;;10132929;28;20020;-58
2022/12/25 20:23:07;;;;;;;3.40;1.92;;;12.70;99.90;;;;;;10148955;28;20024;-60
2022/12/25 20:27:57;;;;;;;6.47;2.10;;;12.70;99.90;;;;;;10139744;28;20503;-58
2022/12/25 20:32:48;;;;;;;2.60;1.80;;;12.70;99.90;;;;;;10136501;28;20028;-62
2022/12/25 20:37:39;;;;;;;3.00;2.17;;;12.80;99.90;;;;;;10142347;28;20391;-61
2022/12/25 20:42:29;;;;;;;4.38;2.42;;;12.80;99.90;;;;;;10142081;28;20024;-67
2022/12/25 20:47:20;;;;;;;3.13;1.85;;;12.90;99.90;;;;;;10140189;28;20433;-62
2022/12/25 20:52:11;;;;;;;3.65;2.40;;;12.90;99.90;;;;;;10140459;28;20564;-57
2022/12/25 20:57:01;;;;;;;3.20;2.08;;;12.90;99.90;;;;;;10141278;28;20127;-61
2022/12/25 21:01:54;;;;;;;4.53;2.20;;;12.90;99.90;;;;;;10135199;28;20091;-68
2022/12/25 21:06:44;;;;;;;4.60;2.63;;;12.90;99.90;;;;;;10114442;28;20135;-66
2022/12/25 21:11:35;;;;;;;3.83;2.25;;;12.90;99.90;;;;;;10124561;28;20077;-59
2022/12/25 21:16:26;;;;;;;5.50;2.42;;;12.90;99.90;;;;;;10125286;28;20048;-59
2022/12/25 21:21:18;;;;;;;4.97;3.10;;;12.90;99.90;;;;;;10143111;28;20039;-65
2022/12/25 21:26:17;;;;;;;4.03;2.25;;;12.90;99.90;;;;;;10144698;28;20044;-63
2022/12/25 21:31:09;;;;;;;2.95;2.00;;;12.80;99.90;;;;;;10138397;28;20024;-62
2022/12/25 21:36:09;;;;;;;5.45;2.58;;;12.80;99.90;;;;;;10141727;28;20028;-59
2022/12/25 21:41:08;;;;;;;3.10;2.63;;;12.80;99.90;;;;;;10137134;28;20029;-55
2022/12/25 21:46:07;;;;;;;2.47;2.20;;;12.80;99.90;;;;;;10138731;28;20024;-56
2022/12/25 21:56:29;;;;;;;3.95;2.35;;;12.70;99.90;;;;;;10132128;28;20051;-60
2022/12/25 22:01:19;;;;;;;2.72;2.00;;;12.70;99.90;;;;;;10138646;28;20507;-55
2022/12/25 22:21:39;;;;;;;3.00;2.20;;;12.70;99.90;;;;;;10137574;28;20039;-65
2022/12/25 22:26:29;;;;;;;3.90;2.33;;;12.70;99.90;;;;;;10132452;28;20035;-56
2022/12/25 22:31:20;;;;;;;3.83;2.70;;;12.70;99.90;;;;;;10137333;28;20095;-66
2022/12/25 22:36:10;;;;;;;4.30;2.38;;;12.70;99.90;;;;;;10137675;28;20059;-59
2022/12/25 22:41:05;;;;;;;2.95;2.10;;;12.80;99.90;;;;;;10129881;28;20043;-57
2022/12/25 22:45:58;;;;;;;3.88;2.13;;;12.80;99.90;;;;;;10136480;28;20032;-56
2022/12/25 22:50:49;;;;;;;3.20;1.95;;;12.80;99.90;;;;;;10137467;28;20103;-57
2022/12/25 22:55:47;;;;;;;2.63;1.67;;;12.80;99.90;;;;;;10136835;28;20573;-55
2022/12/25 23:00:41;;;;;;;3.95;2.20;;;12.90;99.90;;;;;;10135248;28;20060;-57
2022/12/25 23:05:32;;;;;;;3.10;1.80;;;12.90;99.90;;;;;;10130763;28;20086;-56
2022/12/25 23:10:22;;;;;;;3.50;1.80;;;12.90;99.90;;;;;;10129831;28;20029;-60
2022/12/25 23:15:13;;;;;;;2.75;1.70;;;12.90;99.90;;;;;;10136591;28;20101;-58
2022/12/25 23:30:23;;;;;;;3.63;2.22;;;13.00;99.90;;;;;;10136841;28;20391;-54
2022/12/25 23:35:13;;;;;;;5.25;2.17;;;13.00;99.90;;;;;;10135437;28;20032;-66
2022/12/25 23:40:05;;;;;;;3.88;2.25;;;13.00;99.90;;;;;;10136247;28;20028;-66
2022/12/25 23:44:55;;;;;;;4.45;2.30;;;13.00;99.90;;;;;;10141700;28;20058;-60
2022/12/25 23:49:46;;;;;;;3.30;2.42;;;13.00;99.90;;;;;;10138511;28;20097;-57
2022/12/25 23:54:36;;;;;;;5.32;2.50;;;13.00;99.90;;;;;;10143219;28;20058;-67
2022/12/25 23:59:29;;;;;;;3.33;1.83;;;13.00;99.90;;;;;;10142435;28;20059;-67
